Time;durP1;ratioP1;P1;durP2;ratioP2;P2;SDS_P1;SDS_P2;PMS_P1;PMS_P2;Temp;Humidity;BMP_temperature;BMP_pressure;BME280_temperature;BME280_humidity;BME280_pressure;Samples;Min_cycle;Max_cycle;Signal;HPM_P1;HPM_P2
2021/07/01 00:02:25;;;;;;;11.23;4.70;;;15.30;99.90;;;;;;4462047;27;658042;-68
2021/07/01 00:05:15;;;;;;;10.23;4.78;;;15.30;99.90;;;;;;4466412;27;657910;-69
2021/07/01 00:08:03;;;;;;;9.70;5.03;;;15.30;99.90;;;;;;4466536;27;657513;-69
2021/07/01 00:10:51;;;;;;;6.73;4.43;;;15.30;99.90;;;;;;4485415;27;656702;-69
2021/07/01 00:13:38;;;;;;;6.33;4.70;;;15.30;99.90;;;;;;4465717;27;656687;-69
2021/07/01 00:16:26;;;;;;;8.70;5.00;;;15.30;99.90;;;;;;4499737;27;657284;-69
2021/07/01 00:19:15;;;;;;;6.70;5.03;;;15.30;99.90;;;;;;4483494;27;657010;-69
2021/07/01 00:22:03;;;;;;;8.77;5.33;;;15.40;99.90;;;;;;4500217;27;656171;-69
2021/07/01 00:24:50;;;;;;;9.17;5.20;;;15.40;99.90;;;;;;4506661;27;656806;-69
2021/07/01 00:27:38;;;;;;;7.50;5.20;;;15.40;99.90;;;;;;4483748;27;656757;-69
2021/07/01 00:30:25;;;;;;;8.27;4.90;;;15.40;99.90;;;;;;4505938;27;657376;-69
2021/07/01 00:33:13;;;;;;;9.33;4.70;;;15.40;99.90;;;;;;4483331;27;656561;-69
2021/07/01 00:36:02;;;;;;;6.60;4.10;;;15.40;99.90;;;;;;4505226;27;656883;-69
2021/07/01 00:38:50;;;;;;;10.47;4.60;;;15.30;99.90;;;;;;4479582;27;657602;-69
2021/07/01 00:41:38;;;;;;;11.67;5.00;;;15.40;99.90;;;;;;4482158;27;657723;-69
2021/07/01 00:44:25;;;;;;;7.13;4.77;;;15.40;99.90;;;;;;4504782;27;658524;-69
2021/07/01 00:47:13;;;;;;;6.93;4.90;;;15.50;99.90;;;;;;4482820;27;657352;-69
2021/07/01 00:50:02;;;;;;;6.20;4.70;;;15.60;99.90;;;;;;4506093;27;657801;-68
2021/07/01 00:52:51;;;;;;;8.77;5.07;;;15.60;99.90;;;;;;4483359;27;657786;-69
2021/07/01 00:55:38;;;;;;;10.40;4.93;;;15.70;99.90;;;;;;4482649;27;656610;-69
2021/07/01 00:58:26;;;;;;;8.53;4.30;;;15.70;99.90;;;;;;4500761;27;658182;-69
2021/07/01 01:01:13;;;;;;;6.97;4.67;;;15.80;99.90;;;;;;4482857;27;657016;-69
2021/07/01 01:04:01;;;;;;;7.83;4.87;;;15.80;99.90;;;;;;4502200;27;657662;-68
2021/07/01 01:06:49;;;;;;;5.20;4.17;;;15.80;99.90;;;;;;4483042;27;656306;-69
2021/07/01 01:09:37;;;;;;;6.00;4.30;;;15.70;99.90;;;;;;4503799;27;656951;-69
2021/07/01 01:12:25;;;;;;;8.57;4.50;;;15.70;99.90;;;;;;4480031;27;657386;-68
2021/07/01 01:15:13;;;;;;;8.40;4.00;;;15.70;99.90;;;;;;4481440;27;656582;-69
2021/07/01 01:18:00;;;;;;;5.60;4.30;;;15.70;99.90;;;;;;4482686;27;657452;-69
2021/07/01 01:20:48;;;;;;;13.47;4.43;;;15.70;99.90;;;;;;4463939;27;656166;-69
2021/07/01 01:23:37;;;;;;;10.70;4.53;;;15.70;99.90;;;;;;4484776;27;658173;-69
2021/07/01 01:26:24;;;;;;;6.07;4.33;;;15.70;99.90;;;;;;4459799;27;658487;-71
2021/07/01 01:29:12;;;;;;;5.77;4.40;;;15.70;99.90;;;;;;4483310;27;656572;-71
2021/07/01 01:31:59;;;;;;;7.93;4.90;;;15.70;99.90;;;;;;4460764;27;657295;-71
2021/07/01 01:34:47;;;;;;;10.00;4.93;;;15.70;99.90;;;;;;4484301;27;656483;-71
2021/07/01 01:37:34;;;;;;;6.87;3.73;;;15.70;99.90;;;;;;4459418;27;658511;-71
2021/07/01 01:40:23;;;;;;;9.33;4.70;;;15.70;99.90;;;;;;4483029;27;656418;-71
2021/07/01 01:43:12;;;;;;;9.87;4.87;;;15.70;99.90;;;;;;4460704;27;657327;-71
2021/07/01 01:46:00;;;;;;;6.60;4.37;;;15.70;99.90;;;;;;4459989;27;657569;-71
2021/07/01 01:48:51;;;;;;;10.43;4.07;;;15.70;99.90;;;;;;4471278;27;656857;-71
2021/07/01 01:51:39;;;;;;;7.40;4.50;;;15.80;99.90;;;;;;4462185;27;657580;-71
2021/07/01 01:54:26;;;;;;;10.93;4.37;;;15.70;99.90;;;;;;4483610;27;657143;-71
2021/07/01 01:57:15;;;;;;;6.07;4.50;;;15.70;99.90;;;;;;4462911;27;657905;-72
2021/07/01 02:00:03;;;;;;;8.17;4.63;;;15.80;99.90;;;;;;4463454;27;656888;-71
2021/07/01 02:02:51;;;;;;;8.40;4.30;;;15.80;99.90;;;;;;4486244;27;656920;-71
2021/07/01 02:05:38;;;;;;;9.83;4.07;;;15.70;99.90;;;;;;4463811;27;657372;-71
2021/07/01 02:08:26;;;;;;;8.63;4.55;;;15.70;99.90;;;;;;4482508;27;657343;-71
2021/07/01 02:11:13;;;;;;;7.67;4.53;;;15.70;99.90;;;;;;4463466;27;656124;-71
2021/07/01 02:14:02;;;;;;;7.82;4.38;;;15.70;99.90;;;;;;4483992;27;657102;-71
2021/07/01 02:16:50;;;;;;;6.88;4.28;;;15.70;99.90;;;;;;4465274;27;657563;-71
2021/07/01 02:19:38;;;;;;;6.17;4.57;;;15.70;99.90;;;;;;4478208;27;656957;-72
2021/07/01 02:22:25;;;;;;;8.10;4.23;;;15.70;99.90;;;;;;4482358;27;657430;-72
2021/07/01 02:25:13;;;;;;;5.28;4.57;;;15.70;99.90;;;;;;4464229;27;656456;-71
2021/07/01 02:28:01;;;;;;;6.23;4.60;;;15.70;99.90;;;;;;4482037;28;657249;-71
2021/07/01 02:30:50;;;;;;;7.20;4.60;;;15.80;99.90;;;;;;4463484;28;656834;-72
2021/07/01 02:33:38;;;;;;;6.23;4.60;;;15.80;99.90;;;;;;4474797;28;656343;-72
2021/07/01 02:36:25;;;;;;;6.07;4.43;;;15.80;99.90;;;;;;4482089;28;657069;-71
2021/07/01 02:39:13;;;;;;;4.80;4.30;;;15.80;99.90;;;;;;4463470;28;657200;-72
2021/07/01 02:42:00;;;;;;;8.30;4.50;;;15.80;99.90;;;;;;4482554;28;658014;-71
2021/07/01 02:44:48;;;;;;;6.07;4.13;;;15.80;99.90;;;;;;4463668;28;656639;-72
2021/07/01 02:47:37;;;;;;;7.83;4.60;;;15.70;99.90;;;;;;4486795;28;657617;-72
2021/07/01 02:50:24;;;;;;;6.33;4.40;;;15.70;99.90;;;;;;4463902;28;657012;-72
2021/07/01 02:53:12;;;;;;;7.07;4.10;;;15.80;99.90;;;;;;4482118;28;657289;-72
2021/07/01 02:56:00;;;;;;;6.90;4.27;;;15.70;99.90;;;;;;4459071;28;657336;-72
2021/07/01 02:58:47;;;;;;;8.00;4.53;;;15.80;99.90;;;;;;4482984;28;656625;-71
2021/07/01 03:01:35;;;;;;;9.87;4.80;;;15.80;99.90;;;;;;4459124;28;657413;-72
2021/07/01 03:04:24;;;;;;;8.27;4.77;;;15.90;99.90;;;;;;4481289;28;656183;-72
2021/07/01 03:07:12;;;;;;;6.63;4.73;;;15.90;99.90;;;;;;4482873;28;656018;-72
2021/07/01 03:09:59;;;;;;;8.37;4.47;;;15.90;99.90;;;;;;4459070;28;657840;-71
2021/07/01 03:12:47;;;;;;;7.57;4.97;;;16.00;99.90;;;;;;4482357;28;656430;-72
2021/07/01 03:15:34;;;;;;;11.33;4.93;;;16.10;99.90;;;;;;4462394;28;657654;-72
2021/07/01 03:18:22;;;;;;;10.77;4.90;;;16.10;99.90;;;;;;4482722;28;657300;-72
2021/07/01 03:21:11;;;;;;;7.73;4.77;;;16.10;99.90;;;;;;4459147;28;657943;-72
2021/07/01 03:23:58;;;;;;;8.67;4.83;;;16.10;99.90;;;;;;4463079;28;656578;-72
2021/07/01 03:26:46;;;;;;;11.87;5.83;;;16.00;99.90;;;;;;4485191;27;656505;-72
2021/07/01 03:29:33;;;;;;;7.53;5.17;;;16.10;99.90;;;;;;4464945;27;657344;-72
2021/07/01 03:32:21;;;;;;;8.17;4.23;;;16.20;99.90;;;;;;4485193;27;656756;-72
2021/07/01 03:35:09;;;;;;;6.73;4.63;;;16.20;99.90;;;;;;4462790;27;656562;-72
2021/07/01 03:37:58;;;;;;;7.33;5.30;;;16.20;99.90;;;;;;4485708;27;656834;-71
2021/07/01 03:40:46;;;;;;;11.50;4.83;;;16.30;99.90;;;;;;4466052;27;657561;-72
2021/07/01 03:43:38;;;;;;;9.80;4.35;;;16.30;99.90;;;;;;4461256;27;657990;-72
2021/07/01 03:46:25;;;;;;;9.05;4.68;;;16.30;99.90;;;;;;4458562;27;657095;-72
2021/07/01 03:49:13;;;;;;;8.53;4.70;;;16.50;99.90;;;;;;4466578;27;656395;-72
2021/07/01 03:52:00;;;;;;;8.50;4.87;;;16.60;99.90;;;;;;4488363;27;657670;-72
2021/07/01 03:54:49;;;;;;;7.83;4.90;;;16.60;99.90;;;;;;4465583;27;656882;-72
2021/07/01 03:57:37;;;;;;;10.23;5.10;;;16.60;99.90;;;;;;4485035;27;656479;-72
2021/07/01 04:00:24;;;;;;;8.70;4.70;;;16.70;99.90;;;;;;4461127;27;658354;-72
2021/07/01 04:03:12;;;;;;;7.43;5.30;;;16.70;99.90;;;;;;4485020;27;656771;-72
2021/07/01 04:05:59;;;;;;;8.87;5.37;;;16.80;99.90;;;;;;4461358;27;656748;-72
2021/07/01 04:08:47;;;;;;;11.53;5.00;;;16.90;99.90;;;;;;4485034;27;656468;-72
2021/07/01 04:11:36;;;;;;;8.23;5.10;;;16.90;99.90;;;;;;4460607;27;658177;-72
2021/07/01 04:14:24;;;;;;;8.60;5.23;;;17.00;99.90;;;;;;4465637;27;656827;-72
2021/07/01 04:17:11;;;;;;;7.17;4.70;;;17.00;99.90;;;;;;4485823;27;656739;-72
2021/07/01 04:19:59;;;;;;;8.67;5.07;;;17.10;99.90;;;;;;4466386;27;656246;-72
2021/07/01 04:22:46;;;;;;;8.73;5.57;;;17.10;99.90;;;;;;4488342;27;657039;-72
2021/07/01 04:25:34;;;;;;;9.67;5.40;;;17.20;99.90;;;;;;4461300;27;656442;-72
2021/07/01 04:28:23;;;;;;;9.53;4.73;;;17.20;99.90;;;;;;4483819;27;656336;-72
2021/07/01 04:31:11;;;;;;;8.57;4.60;;;17.20;99.90;;;;;;4462062;27;657813;-72
2021/07/01 04:33:59;;;;;;;8.67;4.93;;;17.20;99.90;;;;;;4465724;27;656873;-72
2021/07/01 04:36:46;;;;;;;8.17;4.93;;;17.20;99.90;;;;;;4483836;27;657432;-72
2021/07/01 04:39:34;;;;;;;11.13;5.43;;;17.30;99.90;;;;;;4465893;27;656392;-72
2021/07/01 04:42:21;;;;;;;8.77;5.60;;;17.40;99.90;;;;;;4483986;27;657773;-72
2021/07/01 04:45:11;;;;;;;11.60;5.83;;;17.40;99.90;;;;;;4465544;27;656549;-69
2021/07/01 04:47:59;;;;;;;12.37;6.63;;;17.40;99.90;;;;;;4463758;27;657965;-69
2021/07/01 04:50:47;;;;;;;8.90;5.93;;;17.50;99.90;;;;;;4487628;27;657688;-69
2021/07/01 04:53:34;;;;;;;14.73;6.23;;;17.50;99.90;;;;;;4461309;27;657314;-69
2021/07/01 04:56:22;;;;;;;12.53;5.67;;;17.60;99.90;;;;;;4482740;27;658019;-69
2021/07/01 04:59:09;;;;;;;11.50;5.90;;;17.70;99.90;;;;;;4460055;27;657760;-69
2021/07/01 05:01:59;;;;;;;11.47;6.10;;;17.70;99.90;;;;;;4486877;27;656699;-69
2021/07/01 05:04:46;;;;;;;8.63;5.97;;;17.80;99.90;;;;;;4459683;27;658218;-72
2021/07/01 05:07:34;;;;;;;11.57;6.67;;;17.90;99.90;;;;;;4465557;27;656995;-70
2021/07/01 05:10:22;;;;;;;17.13;7.03;;;17.90;99.90;;;;;;4480177;27;657842;-70
2021/07/01 05:13:10;;;;;;;9.97;7.37;;;17.90;99.90;;;;;;4463570;27;658010;-70
2021/07/01 05:15:57;;;;;;;17.77;7.90;;;18.00;99.90;;;;;;4487775;27;655531;-70
2021/07/01 05:18:47;;;;;;;12.43;8.07;;;18.10;99.90;;;;;;4459507;27;658602;-70
2021/07/01 05:21:35;;;;;;;16.03;8.80;;;18.20;99.90;;;;;;4464037;27;657915;-69
2021/07/01 05:24:22;;;;;;;14.80;8.07;;;18.20;99.90;;;;;;4486454;27;656699;-70
2021/07/01 05:27:10;;;;;;;17.03;8.60;;;18.20;99.90;;;;;;4462854;27;658283;-69
2021/07/01 05:29:58;;;;;;;16.00;8.17;;;18.20;99.90;;;;;;4476142;27;658035;-70
2021/07/01 05:32:46;;;;;;;14.63;7.87;;;18.30;99.90;;;;;;4487103;27;658957;-70
2021/07/01 05:35:34;;;;;;;14.50;8.43;;;18.40;99.90;;;;;;4469991;27;657647;-69
2021/07/01 05:38:22;;;;;;;13.90;8.03;;;18.40;99.90;;;;;;4489012;27;657826;-68
2021/07/01 05:41:09;;;;;;;16.20;8.93;;;18.30;99.90;;;;;;4467730;27;658912;-68
2021/07/01 05:43:59;;;;;;;14.83;8.23;;;18.30;99.90;;;;;;4491539;27;657323;-68
2021/07/01 05:46:47;;;;;;;13.53;7.73;;;18.20;99.90;;;;;;4468116;27;658032;-69
2021/07/01 05:49:35;;;;;;;11.97;7.07;;;18.20;99.90;;;;;;4468993;27;658419;-69
2021/07/01 05:52:26;;;;;;;14.23;7.03;;;18.40;99.90;;;;;;4490623;27;658215;-68
2021/07/01 05:55:14;;;;;;;16.83;6.60;;;18.40;99.90;;;;;;4469726;27;657987;-68
2021/07/01 05:58:03;;;;;;;11.37;6.20;;;18.50;99.90;;;;;;4487166;27;657738;-68
2021/07/01 06:00:50;;;;;;;7.50;5.43;;;18.50;99.90;;;;;;4465113;27;658206;-68
2021/07/01 06:03:46;;;;;;;9.10;4.97;;;18.40;99.90;;;;;;4465276;27;656381;-69
2021/07/01 06:06:44;;;;;;;12.17;5.20;;;18.50;99.90;;;;;;4472064;27;657233;-69
2021/07/01 06:09:52;;;;;;;8.47;5.07;;;18.40;99.90;;;;;;4466008;27;657522;-68
2021/07/01 06:12:39;;;;;;;9.60;5.33;;;18.50;99.90;;;;;;4448494;27;657327;-68
2021/07/01 06:15:27;;;;;;;10.67;5.20;;;18.50;99.90;;;;;;4493618;27;656250;-68
2021/07/01 06:18:15;;;;;;;7.57;4.30;;;18.60;99.90;;;;;;4468257;27;657843;-68
2021/07/01 06:21:03;;;;;;;7.60;5.00;;;18.60;99.90;;;;;;4472672;27;657399;-69
2021/07/01 06:23:51;;;;;;;7.97;4.83;;;18.60;99.90;;;;;;4489653;27;656938;-69
2021/07/01 06:26:40;;;;;;;6.57;4.43;;;18.50;99.90;;;;;;4479010;27;656313;-68
2021/07/01 06:29:28;;;;;;;10.77;4.47;;;18.50;99.90;;;;;;4472199;27;657001;-69
2021/07/01 06:32:16;;;;;;;9.97;4.60;;;18.30;99.90;;;;;;4501412;27;658268;-68
2021/07/01 06:35:04;;;;;;;6.80;4.23;;;18.30;99.90;;;;;;4473626;27;656794;-69
2021/07/01 06:37:54;;;;;;;8.57;4.00;;;18.30;99.90;;;;;;4485525;27;656280;-68
2021/07/01 06:40:44;;;;;;;6.67;3.80;;;18.30;99.90;;;;;;4474086;27;657136;-68
2021/07/01 06:43:36;;;;;;;7.60;4.07;;;18.30;99.90;;;;;;4470904;27;656979;-68
2021/07/01 06:46:30;;;;;;;6.93;3.57;;;18.50;99.90;;;;;;4477680;27;656841;-69
2021/07/01 07:02:04;;;;;;;5.60;3.87;;;18.20;99.90;;;;;;4466545;27;656820;-68
2021/07/01 07:04:54;;;;;;;6.75;4.05;;;18.10;99.90;;;;;;4475025;27;656443;-68
2021/07/01 07:07:43;;;;;;;9.23;4.57;;;18.10;99.90;;;;;;4464846;27;656405;-68
2021/07/01 07:10:32;;;;;;;10.37;5.13;;;18.00;99.90;;;;;;4477440;27;657048;-68
2021/07/01 07:13:24;;;;;;;11.00;5.10;;;17.90;99.90;;;;;;4471504;27;658645;-69
2021/07/01 07:16:12;;;;;;;8.73;4.40;;;17.90;99.90;;;;;;4463871;27;657472;-69
2021/07/01 07:19:02;;;;;;;7.73;4.10;;;17.80;99.90;;;;;;4468123;27;657131;-68
2021/07/01 07:21:52;;;;;;;15.20;4.43;;;17.90;99.90;;;;;;4454392;27;657818;-68
2021/07/01 07:24:41;;;;;;;8.50;4.20;;;17.90;99.90;;;;;;4458600;27;658841;-68
2021/07/01 07:27:31;;;;;;;11.10;4.90;;;17.90;99.90;;;;;;4468231;27;656441;-69
2021/07/01 07:30:21;;;;;;;13.97;4.23;;;18.00;99.90;;;;;;4460513;27;658251;-66
2021/07/01 07:33:09;;;;;;;8.30;4.77;;;17.90;99.90;;;;;;4463519;27;657562;-67
2021/07/01 07:39:36;;;;;;;13.97;4.90;;;18.00;99.90;;;;;;4857452;27;3467778;-67
2021/07/01 07:42:24;;;;;;;13.13;5.10;;;18.00;99.90;;;;;;4464243;27;652493;-67
2021/07/01 07:45:14;;;;;;;9.97;5.73;;;18.10;99.90;;;;;;4488032;27;651886;-66
2021/07/01 07:48:02;;;;;;;11.57;5.60;;;18.20;99.90;;;;;;4443034;28;650648;-67
2021/07/01 07:50:51;;;;;;;7.90;5.40;;;18.20;99.90;;;;;;4440070;28;652101;-67
2021/07/01 07:53:39;;;;;;;10.87;5.47;;;18.20;99.90;;;;;;4448099;28;650802;-67
2021/07/01 07:56:36;;;;;;;10.60;5.23;;;18.30;99.90;;;;;;4446682;28;652823;-67
2021/07/01 07:59:25;;;;;;;6.90;4.93;;;18.20;99.90;;;;;;4427938;28;652632;-68
2021/07/01 08:02:28;;;;;;;13.33;5.43;;;18.30;99.90;;;;;;4436628;28;650803;-67
2021/07/01 08:05:18;;;;;;;8.77;4.80;;;18.50;99.90;;;;;;4426816;28;652213;-68
2021/07/01 08:08:08;;;;;;;12.63;6.20;;;18.70;99.90;;;;;;4427265;28;652981;-68
2021/07/01 08:10:56;;;;;;;10.37;6.47;;;18.80;99.90;;;;;;4409178;28;655584;-67
2021/07/01 08:13:45;;;;;;;10.60;6.27;;;18.80;99.90;;;;;;4446877;28;653631;-68
2021/07/01 08:16:33;;;;;;;11.70;6.40;;;18.80;99.90;;;;;;4457858;28;653488;-68
2021/07/01 08:19:21;;;;;;;9.77;5.63;;;18.70;99.90;;;;;;4487846;28;654969;-68
2021/07/01 08:22:09;;;;;;;11.40;5.47;;;18.70;99.90;;;;;;4466402;28;652762;-69
2021/07/01 08:24:57;;;;;;;7.20;4.43;;;18.90;99.90;;;;;;4483631;28;653520;-68
2021/07/01 08:27:46;;;;;;;8.03;4.20;;;19.10;99.90;;;;;;4467127;28;653153;-68
2021/07/01 08:30:35;;;;;;;10.13;4.40;;;19.10;99.90;;;;;;4466936;28;652201;-69
2021/07/01 08:33:23;;;;;;;5.43;4.00;;;19.20;99.90;;;;;;4479460;28;652966;-69
2021/07/01 08:36:10;;;;;;;6.83;3.63;;;19.30;99.90;;;;;;4489578;28;653507;-68
2021/07/01 08:38:58;;;;;;;10.93;3.50;;;19.40;99.90;;;;;;4466118;28;652122;-69
2021/07/01 08:41:45;;;;;;;5.83;3.37;;;19.30;99.90;;;;;;4488117;28;654623;-68
2021/07/01 08:44:43;;;;;;;6.10;3.73;;;19.30;99.90;;;;;;4459627;28;652331;-68
2021/07/01 08:47:33;;;;;;;8.93;3.70;;;19.40;99.90;;;;;;4448557;28;652878;-68
2021/07/01 08:50:21;;;;;;;7.00;3.53;;;19.50;99.90;;;;;;4417870;28;652782;-68
2021/07/01 08:53:18;;;;;;;8.03;4.63;;;19.60;99.90;;;;;;4418036;28;652559;-68
2021/07/01 08:56:05;;;;;;;7.13;4.00;;;19.60;99.90;;;;;;4414170;28;652897;-68
2021/07/01 08:58:54;;;;;;;6.93;3.90;;;19.70;99.90;;;;;;4417511;28;653329;-68
2021/07/01 09:01:42;;;;;;;5.40;3.40;;;19.60;99.90;;;;;;4436613;28;652820;-67
2021/07/01 09:04:32;;;;;;;3.20;2.60;;;19.40;99.90;;;;;;4418463;28;653667;-68
2021/07/01 09:07:22;;;;;;;4.23;2.60;;;19.30;99.90;;;;;;4414849;28;653833;-68
2021/07/01 09:10:11;;;;;;;9.07;2.70;;;18.90;99.90;;;;;;4414764;28;653384;-67
2021/07/01 09:13:00;;;;;;;5.80;2.90;;;18.80;99.90;;;;;;4423118;28;653107;-68
2021/07/01 09:15:49;;;;;;;6.30;3.00;;;18.70;99.90;;;;;;4447191;28;652389;-68
2021/07/01 09:18:37;;;;;;;5.73;4.33;;;18.80;99.90;;;;;;4454957;28;652210;-67
2021/07/01 09:21:26;;;;;;;6.03;3.87;;;18.90;99.90;;;;;;4432185;28;653118;-67
2021/07/01 09:24:14;;;;;;;5.93;3.60;;;19.10;99.90;;;;;;4433877;28;653025;-68
2021/07/01 09:27:01;;;;;;;3.33;2.53;;;19.10;99.90;;;;;;4454316;28;653461;-67
2021/07/01 09:29:50;;;;;;;3.40;2.43;;;19.20;99.90;;;;;;4435862;28;652414;-68
2021/07/01 09:32:38;;;;;;;8.73;2.27;;;19.30;99.90;;;;;;4439512;28;652569;-68
2021/07/01 09:35:27;;;;;;;5.47;2.50;;;19.50;99.90;;;;;;4453956;28;653312;-67
2021/07/01 09:38:16;;;;;;;3.00;2.40;;;19.60;99.90;;;;;;4435707;28;653527;-67
2021/07/01 09:41:04;;;;;;;5.60;2.60;;;19.50;99.90;;;;;;4432980;28;652518;-68
2021/07/01 09:43:52;;;;;;;6.97;2.93;;;19.40;99.90;;;;;;4452803;28;653330;-67
2021/07/01 09:46:40;;;;;;;4.07;2.80;;;19.50;99.90;;;;;;4431432;28;653363;-67
2021/07/01 09:49:31;;;;;;;8.20;2.90;;;19.40;99.90;;;;;;4436203;28;652196;-67
2021/07/01 09:52:18;;;;;;;5.83;2.83;;;19.40;99.90;;;;;;4418292;28;652736;-67
2021/07/01 09:55:08;;;;;;;8.50;3.30;;;19.50;99.90;;;;;;4436958;28;653847;-67
2021/07/01 09:57:57;;;;;;;5.97;3.03;;;19.50;99.90;;;;;;4413675;28;653323;-67
2021/07/01 10:00:49;;;;;;;3.77;2.83;;;19.50;99.90;;;;;;4417409;28;652796;-67
2021/07/01 10:03:54;;;;;;;8.50;3.33;;;19.40;99.90;;;;;;4413984;28;652306;-67
2021/07/01 10:06:42;;;;;;;7.53;3.40;;;19.10;99.90;;;;;;4423074;28;653312;-67
2021/07/01 10:09:30;;;;;;;6.47;3.63;;;19.00;99.90;;;;;;4416818;28;653208;-67
2021/07/01 10:12:21;;;;;;;8.67;3.40;;;18.90;99.90;;;;;;4448881;28;652272;-68
2021/07/01 10:15:10;;;;;;;7.87;5.13;;;18.90;99.90;;;;;;4430119;28;652584;-67
2021/07/01 10:18:06;;;;;;;13.33;6.23;;;18.50;99.90;;;;;;4445276;28;652394;-67
2021/07/01 10:20:55;;;;;;;12.30;7.77;;;18.30;99.90;;;;;;4399872;28;654435;-67
2021/07/01 10:23:43;;;;;;;13.90;6.97;;;18.10;99.90;;;;;;4441930;28;653529;-68
2021/07/01 10:26:30;;;;;;;13.20;6.43;;;18.00;99.90;;;;;;4445967;28;654259;-66
2021/07/01 10:29:20;;;;;;;15.67;6.40;;;18.00;99.90;;;;;;4425252;28;654178;-67
2021/07/01 10:32:09;;;;;;;10.53;6.70;;;18.00;99.90;;;;;;4432314;28;654961;-67
2021/07/01 10:34:57;;;;;;;13.67;7.30;;;17.90;99.90;;;;;;4413069;28;654587;-67
2021/07/01 10:37:56;;;;;;;13.03;7.10;;;17.90;99.90;;;;;;4427177;28;654647;-67
2021/07/01 10:40:46;;;;;;;10.50;6.90;;;18.00;99.90;;;;;;4400199;28;654827;-67
2021/07/01 10:43:41;;;;;;;9.50;6.87;;;18.00;99.90;;;;;;4432008;28;654457;-67
2021/07/01 10:46:39;;;;;;;11.57;6.37;;;18.10;99.90;;;;;;4425763;28;653610;-67
2021/07/01 10:49:32;;;;;;;9.37;6.33;;;18.30;99.90;;;;;;4409529;28;654583;-68
2021/07/01 10:52:20;;;;;;;10.67;7.40;;;18.50;99.90;;;;;;4396140;28;653420;-67
2021/07/01 10:55:09;;;;;;;12.47;6.70;;;18.80;99.90;;;;;;4444228;28;654211;-68
2021/07/01 10:57:57;;;;;;;13.70;7.03;;;19.00;99.90;;;;;;4448965;28;655035;-68
2021/07/01 11:00:45;;;;;;;10.07;7.30;;;19.20;99.90;;;;;;4415407;28;655187;-68
2021/07/01 11:03:35;;;;;;;11.73;7.80;;;19.30;99.90;;;;;;4420262;28;654645;-68
2021/07/01 11:06:23;;;;;;;12.07;6.83;;;19.30;99.90;;;;;;4435103;28;654840;-68
2021/07/01 11:09:11;;;;;;;10.20;7.57;;;19.40;99.90;;;;;;4448170;28;655767;-67
2021/07/01 11:12:02;;;;;;;13.00;7.13;;;19.60;99.90;;;;;;4413612;28;654927;-67
2021/07/01 11:14:52;;;;;;;9.17;6.40;;;19.90;99.90;;;;;;4428106;28;654515;-68
2021/07/01 11:17:40;;;;;;;7.13;6.13;;;20.20;99.90;;;;;;4424712;28;653726;-68
2021/07/01 11:20:29;;;;;;;10.23;6.10;;;20.40;99.90;;;;;;4415516;28;654495;-68
2021/07/01 11:23:20;;;;;;;9.67;5.73;;;20.40;99.90;;;;;;4445892;28;654609;-68
2021/07/01 11:26:25;;;;;;;7.63;5.67;;;20.40;99.90;;;;;;4407804;28;653265;-68
2021/07/01 11:29:13;;;;;;;10.27;6.47;;;20.40;99.90;;;;;;4439225;28;653774;-68
2021/07/01 11:32:00;;;;;;;17.13;7.70;;;20.60;99.90;;;;;;4449637;28;655796;-68
2021/07/01 11:34:49;;;;;;;18.17;7.57;;;20.70;99.90;;;;;;4431008;28;654078;-68
2021/07/01 11:37:38;;;;;;;12.13;6.83;;;21.00;99.90;;;;;;4453114;28;654794;-68
2021/07/01 11:40:26;;;;;;;11.47;7.37;;;21.10;99.90;;;;;;4430338;28;655101;-68
2021/07/01 11:43:14;;;;;;;11.57;7.33;;;21.00;99.90;;;;;;4423656;28;654795;-68
2021/07/01 11:46:01;;;;;;;14.03;6.63;;;21.10;99.90;;;;;;4442409;28;654671;-68
2021/07/01 11:48:50;;;;;;;11.47;7.10;;;21.20;99.90;;;;;;4428021;28;654497;-68
2021/07/01 11:51:38;;;;;;;12.73;6.57;;;21.30;99.90;;;;;;4431751;28;654799;-69
2021/07/01 11:54:27;;;;;;;10.37;6.27;;;21.40;99.90;;;;;;4449354;28;655390;-68
2021/07/01 11:57:15;;;;;;;11.10;7.10;;;21.40;99.90;;;;;;4431644;28;654892;-68
2021/07/01 12:00:03;;;;;;;11.17;7.00;;;21.20;99.90;;;;;;4445391;28;654703;-68
2021/07/01 12:02:50;;;;;;;13.80;7.63;;;21.50;99.90;;;;;;4450196;28;654816;-68
2021/07/01 12:05:41;;;;;;;9.70;6.60;;;22.60;99.90;;;;;;4431288;28;654608;-69
2021/07/01 12:08:28;;;;;;;9.93;7.03;;;23.60;99.90;;;;;;4432605;28;653511;-69
2021/07/01 12:11:17;;;;;;;8.57;6.40;;;24.10;99.90;;;;;;4450850;28;654388;-68
2021/07/01 12:14:06;;;;;;;9.07;6.10;;;24.30;99.90;;;;;;4414624;28;654323;-68
2021/07/01 12:16:54;;;;;;;8.53;5.80;;;24.00;99.90;;;;;;4412755;28;653394;-69
2021/07/01 12:20:03;;;;;;;10.93;5.10;;;23.70;99.90;;;;;;4433467;28;653060;-68
2021/07/01 12:22:50;;;;;;;7.90;4.77;;;23.80;99.90;;;;;;4407309;28;655713;-68
2021/07/01 12:25:56;;;;;;;6.23;4.27;;;24.10;99.90;;;;;;4415553;28;654490;-69
2021/07/01 12:28:45;;;;;;;7.67;3.80;;;24.30;99.90;;;;;;4390958;28;655088;-68
2021/07/01 12:31:36;;;;;;;4.57;3.90;;;24.50;99.90;;;;;;4435441;28;654347;-68
2021/07/01 12:34:23;;;;;;;6.80;4.40;;;24.90;99.90;;;;;;4415407;28;654159;-68
2021/07/01 12:37:11;;;;;;;6.13;3.90;;;24.80;99.90;;;;;;4435188;28;655239;-68
2021/07/01 12:39:59;;;;;;;5.47;3.30;;;24.70;99.90;;;;;;4416471;28;654518;-68
2021/07/01 12:42:47;;;;;;;4.28;3.03;;;24.70;99.90;;;;;;4435827;28;654361;-68
2021/07/01 12:45:36;;;;;;;3.92;3.40;;;25.00;99.90;;;;;;4416968;28;655043;-68
2021/07/01 12:48:39;;;;;;;3.83;2.92;;;24.80;99.90;;;;;;4415865;28;654253;-68
2021/07/01 12:51:42;;;;;;;4.27;2.80;;;24.70;99.90;;;;;;4411891;28;654862;-68
2021/07/01 12:54:57;;;;;;;4.40;2.75;;;24.80;99.90;;;;;;4411360;28;654883;-67
2021/07/01 12:57:44;;;;;;;4.38;2.90;;;24.90;99.90;;;;;;4411955;28;655171;-68
2021/07/01 13:00:32;;;;;;;6.00;2.67;;;25.40;99.90;;;;;;4426655;28;654692;-68
2021/07/01 13:03:26;;;;;;;3.20;2.72;;;25.70;99.90;;;;;;4412124;28;655537;-67
2021/07/01 13:06:15;;;;;;;3.20;2.60;;;25.80;99.90;;;;;;4388773;28;655150;-67
2021/07/01 13:09:03;;;;;;;2.67;2.15;;;25.70;99.90;;;;;;4427993;28;654429;-67
2021/07/01 13:11:50;;;;;;;2.50;2.30;;;25.60;99.90;;;;;;4441342;28;655199;-68
2021/07/01 13:14:39;;;;;;;4.82;2.80;;;25.40;99.90;;;;;;4432397;28;654864;-68
2021/07/01 13:17:27;;;;;;;5.90;2.00;;;24.90;99.90;;;;;;4444688;28;655358;-67
2021/07/01 13:20:17;;;;;;;5.22;2.60;;;24.30;99.90;;;;;;4433580;28;654448;-67
2021/07/01 13:23:05;;;;;;;5.37;2.60;;;23.20;99.90;;;;;;4428517;28;655351;-67
2021/07/01 13:25:53;;;;;;;4.67;3.00;;;22.50;99.90;;;;;;4451293;28;654292;-68
2021/07/01 13:28:40;;;;;;;3.13;2.50;;;22.30;99.90;;;;;;4434843;28;655883;-67
2021/07/01 13:31:30;;;;;;;4.83;3.07;;;22.30;99.90;;;;;;4432795;28;654230;-68
2021/07/01 13:34:18;;;;;;;6.70;3.20;;;22.20;99.90;;;;;;4447548;28;654477;-67
2021/07/01 13:37:20;;;;;;;7.70;2.90;;;22.20;99.90;;;;;;4452173;28;655122;-67
2021/07/01 13:40:38;;;;;;;3.83;2.80;;;22.40;99.90;;;;;;4391899;28;654204;-67
2021/07/01 13:43:26;;;;;;;6.43;3.53;;;22.50;99.90;;;;;;4324252;28;655152;-67
2021/07/01 13:46:14;;;;;;;5.17;3.00;;;22.60;99.90;;;;;;4345364;28;654801;-68
2021/07/01 13:49:01;;;;;;;3.60;2.73;;;22.70;99.90;;;;;;4362890;28;654475;-67
2021/07/01 13:51:53;;;;;;;7.10;2.50;;;22.70;99.90;;;;;;4342042;28;654544;-68
2021/07/01 13:54:42;;;;;;;3.57;2.50;;;22.90;99.90;;;;;;4340645;28;655809;-68
2021/07/01 13:57:30;;;;;;;2.93;2.20;;;23.20;99.90;;;;;;4340260;28;655316;-67
2021/07/01 14:00:22;;;;;;;2.80;2.40;;;23.30;99.90;;;;;;4343347;28;654029;-68
2021/07/01 14:03:12;;;;;;;3.20;2.90;;;23.50;99.90;;;;;;4344486;28;655826;-67
2021/07/01 14:06:02;;;;;;;5.30;2.73;;;23.30;99.90;;;;;;4343630;28;654099;-67
2021/07/01 14:08:50;;;;;;;5.23;2.67;;;23.60;99.90;;;;;;4344612;28;655567;-67
2021/07/01 14:11:39;;;;;;;4.03;2.63;;;23.60;99.90;;;;;;4354610;28;654151;-68
2021/07/01 14:14:27;;;;;;;3.67;2.60;;;23.70;99.90;;;;;;4379706;28;654397;-67
2021/07/01 14:17:14;;;;;;;5.53;2.20;;;23.80;99.90;;;;;;4361322;28;654384;-67
2021/07/01 14:20:03;;;;;;;2.30;1.93;;;23.80;99.90;;;;;;4390456;28;654994;-67
2021/07/01 14:22:50;;;;;;;3.30;2.30;;;23.80;99.90;;;;;;4449254;28;655350;-67
2021/07/01 14:25:38;;;;;;;2.50;2.30;;;23.60;99.90;;;;;;4450105;28;654708;-68
2021/07/01 14:28:28;;;;;;;3.67;1.77;;;23.60;99.90;;;;;;4468872;28;656470;-67
2021/07/01 14:31:17;;;;;;;4.47;2.37;;;23.60;99.90;;;;;;4445737;28;655198;-67
2021/07/01 14:34:05;;;;;;;3.30;2.10;;;23.70;99.90;;;;;;4450007;28;655249;-67
2021/07/01 14:36:54;;;;;;;5.47;2.00;;;23.70;99.90;;;;;;4464518;28;654555;-68
2021/07/01 14:39:42;;;;;;;3.40;1.92;;;23.70;99.90;;;;;;4469298;28;654907;-67
2021/07/01 14:42:32;;;;;;;6.93;2.40;;;23.80;99.90;;;;;;4446012;28;655413;-67